createdAt,value
2023-04-18T00:01:47.646Z,19.12
2023-04-18T00:04:19.232Z,19.11
2023-04-18T00:06:49.687Z,19.09
2023-04-18T00:09:17.864Z,19.09
2023-04-18T00:11:46.365Z,19.06
2023-04-18T00:14:14.811Z,19.06
2023-04-18T00:16:43.328Z,19.04
2023-04-18T00:19:11.437Z,19.03
2023-04-18T00:21:45.019Z,19.02
2023-04-18T00:24:13.615Z,19.00
2023-04-18T00:26:42.188Z,18.99
2023-04-18T00:29:11.591Z,18.99
2023-04-18T00:31:39.749Z,18.98
2023-04-18T00:34:07.783Z,18.95
2023-04-18T00:36:35.848Z,18.96
2023-04-18T00:39:08.494Z,18.93
2023-04-18T00:41:36.580Z,18.93
2023-04-18T00:44:04.702Z,18.91
2023-04-18T00:46:32.880Z,18.88
2023-04-18T00:49:01.051Z,18.87
2023-04-18T00:51:29.460Z,18.88
2023-04-18T00:53:57.794Z,18.85
2023-04-18T00:56:27.554Z,18.85
2023-04-18T00:58:55.750Z,18.85
2023-04-18T01:01:23.989Z,18.84
2023-04-18T01:03:52.271Z,18.83
2023-04-18T01:06:20.580Z,18.81
2023-04-18T01:08:48.887Z,18.81
2023-04-18T01:11:17.484Z,18.80
2023-04-18T01:13:59.696Z,18.79
2023-04-18T01:16:28.753Z,18.75
2023-04-18T01:18:57.090Z,18.76
2023-04-18T01:21:26.911Z,18.74
2023-04-18T01:23:55.259Z,18.74
2023-04-18T01:26:24.718Z,18.72
2023-04-18T01:28:53.145Z,18.72
2023-04-18T01:31:21.443Z,18.71
2023-04-18T01:33:49.510Z,18.70
2023-04-18T01:36:17.618Z,18.70
2023-04-18T01:38:45.714Z,18.67
2023-04-18T01:41:14.144Z,18.66
2023-04-18T01:43:43.589Z,18.65
2023-04-18T01:46:11.771Z,18.66
2023-04-18T01:48:40.326Z,18.64
2023-04-18T01:51:08.486Z,18.65
2023-04-18T01:53:36.480Z,18.62
2023-04-18T01:56:04.755Z,18.62
2023-04-18T01:58:32.866Z,18.59
2023-04-18T02:01:02.495Z,18.62
2023-04-18T02:03:30.949Z,18.59
2023-04-18T02:05:59.278Z,18.59
2023-04-18T02:08:27.504Z,18.57
2023-04-18T02:10:56.244Z,18.58
2023-04-18T02:13:24.501Z,18.56
2023-04-18T02:15:52.555Z,18.56
2023-04-18T02:18:22.099Z,18.54
2023-04-18T02:20:51.406Z,18.54
2023-04-18T02:23:20.283Z,18.53
2023-04-18T02:25:48.456Z,18.52
2023-04-18T02:28:16.683Z,18.52
2023-04-18T02:30:44.902Z,18.51
2023-04-18T02:33:13.517Z,18.50
2023-04-18T02:35:42.996Z,18.49
2023-04-18T02:38:17.751Z,18.47
2023-04-18T02:40:46.124Z,18.48
2023-04-18T02:43:14.282Z,18.46
2023-04-18T02:45:42.499Z,18.46
2023-04-18T02:48:10.742Z,18.45
2023-04-18T02:50:39.217Z,18.45
2023-04-18T02:53:08.875Z,18.44
2023-04-18T02:55:37.801Z,18.44
2023-04-18T02:58:06.658Z,18.43
2023-04-18T03:00:36.098Z,18.41
2023-04-18T03:03:04.238Z,18.42
2023-04-18T03:05:32.872Z,18.41
2023-04-18T03:08:00.979Z,18.41
2023-04-18T03:10:31.194Z,18.40
2023-04-18T03:12:59.280Z,18.36
2023-04-18T03:15:28.425Z,18.39
2023-04-18T03:17:57.462Z,18.38
2023-04-18T03:20:26.632Z,18.35
2023-04-18T03:22:55.038Z,18.35
2023-04-18T03:25:23.142Z,18.35
2023-04-18T03:27:52.664Z,18.35
2023-04-18T03:30:21.536Z,18.34
2023-04-18T03:32:50.011Z,18.33
2023-04-18T03:35:18.334Z,18.34
2023-04-18T03:37:46.469Z,18.33
2023-04-18T03:40:15.726Z,18.31
2023-04-18T03:42:44.146Z,18.31
2023-04-18T03:45:13.793Z,18.29
2023-04-18T03:47:41.946Z,18.25
2023-04-18T03:50:10.770Z,18.29
2023-04-18T03:52:38.945Z,18.28
2023-04-18T03:55:10.207Z,18.28
2023-04-18T03:57:38.868Z,18.26
2023-04-18T04:00:09.091Z,18.27
2023-04-18T04:02:38.950Z,18.26
2023-04-18T04:05:07.493Z,18.26
2023-04-18T04:07:36.202Z,18.25
2023-04-18T04:10:04.496Z,18.22
2023-04-18T04:12:32.681Z,18.25
2023-04-18T04:15:00.947Z,18.22
2023-04-18T04:17:29.055Z,18.19
2023-04-18T04:19:58.776Z,18.22
2023-04-18T04:22:27.303Z,18.22
2023-04-18T04:24:57.779Z,18.21
2023-04-18T04:27:26.900Z,18.19
2023-04-18T04:29:56.536Z,18.20
2023-04-18T04:32:25.313Z,18.20
2023-04-18T04:34:53.649Z,18.19
2023-04-18T04:37:23.798Z,18.19
2023-04-18T04:39:52.331Z,18.19
2023-04-18T04:42:25.356Z,18.15
2023-04-18T04:44:54.428Z,18.17
2023-04-18T04:47:22.563Z,18.16
2023-04-18T04:49:53.546Z,18.16
2023-04-18T04:52:23.042Z,18.14
2023-04-18T04:54:52.763Z,18.14
2023-04-18T04:57:20.854Z,18.14
2023-04-18T04:59:48.964Z,18.14
2023-04-18T05:02:17.119Z,18.14
2023-04-18T05:04:45.515Z,18.11
2023-04-18T05:07:14.963Z,18.13
2023-04-18T05:09:44.446Z,18.12
2023-04-18T05:12:12.495Z,18.12
2023-04-18T05:14:40.495Z,18.10
2023-04-18T05:17:08.667Z,18.10
2023-04-18T05:19:37.302Z,18.10
2023-04-18T05:22:05.526Z,18.09
2023-04-18T05:24:33.571Z,18.09
2023-04-18T05:27:03.480Z,18.09
2023-04-18T05:29:32.093Z,18.10
2023-04-18T05:32:00.294Z,18.05
2023-04-18T05:34:31.879Z,18.08
2023-04-18T05:37:01.500Z,18.08
2023-04-18T05:39:29.913Z,18.08
2023-04-18T05:41:58.447Z,18.08
2023-04-18T05:44:28.175Z,18.08
2023-04-18T05:46:56.292Z,18.09
2023-04-18T05:49:24.613Z,18.09
2023-04-18T05:51:53.034Z,18.09
2023-04-18T05:54:22.035Z,18.09
2023-04-18T05:56:50.255Z,18.09
2023-04-18T05:59:18.720Z,18.07
2023-04-18T06:01:49.355Z,18.07
2023-04-18T06:04:18.024Z,18.09
2023-04-18T06:06:46.656Z,18.10
2023-04-18T06:09:14.788Z,18.08
2023-04-18T06:11:42.924Z,18.09
2023-04-18T06:14:11.002Z,18.10
2023-04-18T06:16:39.221Z,18.10
2023-04-18T06:19:08.732Z,18.11
2023-04-18T06:21:36.933Z,18.10
2023-04-18T06:24:05.996Z,18.11
2023-04-18T06:26:34.327Z,18.11
2023-04-18T06:29:02.623Z,18.11
2023-04-18T06:31:31.274Z,18.11
2023-04-18T06:33:59.452Z,18.12
2023-04-18T06:36:29.160Z,18.11
2023-04-18T06:38:57.244Z,18.13
2023-04-18T06:41:25.628Z,18.13
2023-04-18T06:44:03.306Z,18.14
2023-04-18T06:46:32.862Z,18.15
2023-04-18T06:49:01.013Z,18.13
2023-04-18T06:51:32.443Z,18.15
2023-04-18T06:54:00.738Z,18.17
2023-04-18T06:56:29.698Z,18.16
2023-04-18T06:58:57.819Z,18.18
2023-04-18T07:01:26.033Z,18.18
2023-04-18T07:03:54.680Z,18.19
2023-04-18T07:06:23.032Z,18.20
2023-04-18T07:08:54.422Z,18.21
2023-04-18T07:11:23.558Z,18.21
2023-04-18T07:13:51.700Z,18.23
2023-04-18T07:16:21.196Z,18.22
2023-04-18T07:18:49.430Z,18.24
2023-04-18T07:21:17.656Z,18.23
2023-04-18T07:23:46.729Z,18.25
2023-04-18T07:26:16.278Z,18.25
2023-04-18T07:28:44.525Z,18.23
2023-04-18T07:31:14.520Z,18.26
2023-04-18T07:33:43.354Z,18.27
2023-04-18T07:36:11.843Z,18.28
2023-04-18T07:38:40.203Z,18.29
2023-04-18T07:41:09.358Z,18.28
2023-04-18T07:43:40.445Z,18.30
2023-04-18T07:46:10.515Z,18.30
2023-04-18T07:48:38.879Z,18.31
2023-04-18T07:51:07.042Z,18.29
2023-04-18T07:53:35.909Z,18.34
2023-04-18T07:56:04.136Z,18.33
2023-04-18T07:58:32.552Z,18.32
2023-04-18T08:01:02.264Z,18.35
2023-04-18T08:03:30.766Z,18.35
2023-04-18T08:05:59.608Z,18.36
2023-04-18T08:08:28.048Z,18.38
2023-04-18T08:10:56.164Z,18.39
2023-04-18T08:13:24.256Z,18.39
2023-04-18T08:15:52.477Z,18.40
2023-04-18T08:18:23.045Z,18.41
2023-04-18T08:20:51.926Z,18.42
2023-04-18T08:23:20.069Z,18.44
2023-04-18T08:25:48.451Z,18.44
2023-04-18T08:28:16.992Z,18.46
2023-04-18T08:30:48.775Z,18.46
2023-04-18T08:33:17.029Z,18.47
2023-04-18T08:35:46.773Z,18.50
2023-04-18T08:38:18.012Z,18.49
2023-04-18T08:40:47.153Z,18.52
2023-04-18T08:43:16.140Z,18.52
2023-04-18T08:45:45.174Z,18.54
2023-04-18T08:48:14.213Z,18.56
2023-04-18T08:50:42.792Z,18.57
2023-04-18T08:53:12.855Z,18.57
2023-04-18T08:55:42.032Z,18.59
2023-04-18T08:58:12.456Z,18.59
2023-04-18T09:00:40.675Z,18.60
2023-04-18T09:03:09.235Z,18.62
2023-04-18T09:05:38.504Z,18.63
2023-04-18T09:08:25.186Z,18.64
2023-04-18T09:10:53.271Z,18.65
2023-04-18T09:13:41.084Z,18.66
2023-04-18T09:16:09.487Z,18.69
2023-04-18T09:18:38.491Z,18.67
2023-04-18T09:21:19.407Z,18.71
2023-04-18T09:23:50.385Z,18.73
2023-04-18T09:26:33.866Z,18.74
2023-04-18T09:29:03.239Z,18.78
2023-04-18T09:31:31.378Z,18.77
2023-04-18T09:34:00.762Z,18.80
2023-04-18T09:36:29.037Z,18.81
2023-04-18T09:38:58.549Z,18.83
2023-04-18T09:41:27.578Z,18.86
2023-04-18T09:44:14.523Z,18.86
2023-04-18T09:46:46.050Z,18.88
2023-04-18T09:49:15.670Z,18.92
2023-04-18T09:51:46.093Z,18.93
2023-04-18T09:54:17.362Z,18.94
2023-04-18T09:56:46.929Z,18.98
2023-04-18T09:59:21.261Z,18.98
2023-04-18T10:01:50.964Z,19.00
2023-04-18T10:04:19.915Z,19.01
2023-04-18T10:06:48.210Z,19.03
2023-04-18T10:09:18.820Z,19.05
2023-04-18T10:11:47.203Z,19.06
2023-04-18T10:14:17.405Z,19.09
2023-04-18T10:16:48.640Z,19.09
2023-04-18T10:19:24.680Z,19.13
2023-04-18T10:21:54.436Z,19.12
2023-04-18T10:24:49.471Z,19.17
2023-04-18T10:27:18.281Z,19.20
2023-04-18T10:29:51.464Z,19.20
2023-04-18T10:32:20.061Z,19.22
2023-04-18T10:34:48.810Z,19.22
2023-04-18T10:37:18.994Z,19.24
2023-04-18T10:39:58.205Z,19.23
2023-04-18T10:43:00.515Z,19.28
2023-04-18T10:45:31.270Z,19.26
2023-04-18T10:48:24.359Z,19.31
2023-04-18T10:51:15.055Z,19.32
2023-04-18T10:53:49.499Z,19.33
2023-04-18T10:56:19.015Z,19.34
2023-04-18T10:58:51.681Z,19.37
2023-04-18T11:01:31.721Z,19.36
2023-04-18T11:04:01.613Z,19.39
2023-04-18T11:06:31.321Z,19.39
2023-04-18T11:09:12.449Z,19.42
2023-04-18T11:11:42.541Z,19.43
2023-04-18T11:14:10.811Z,19.45
2023-04-18T11:16:38.998Z,19.45
2023-04-18T11:19:27.980Z,19.47
2023-04-18T11:22:02.056Z,19.49
2023-04-18T11:24:30.663Z,19.51
2023-04-18T11:27:00.527Z,19.51
2023-04-18T11:29:28.873Z,19.51
2023-04-18T11:31:58.625Z,19.54
2023-04-18T11:34:33.232Z,19.54
2023-04-18T11:37:01.587Z,19.54
2023-04-18T11:39:29.845Z,19.56
2023-04-18T11:42:01.410Z,19.57
2023-04-18T11:44:30.930Z,19.57
2023-04-18T11:46:59.105Z,19.58
2023-04-18T11:49:28.409Z,19.58
2023-04-18T11:51:56.984Z,19.57
2023-04-18T11:54:41.208Z,19.60
2023-04-18T11:57:21.704Z,19.59
2023-04-18T11:59:53.039Z,19.61
2023-04-18T12:02:22.405Z,19.59
2023-04-18T12:04:53.106Z,19.63
2023-04-18T12:07:38.102Z,19.64
2023-04-18T12:10:08.577Z,19.65
2023-04-18T12:12:37.715Z,19.65
2023-04-18T12:15:10.030Z,19.68
2023-04-18T12:17:39.074Z,19.69
2023-04-18T12:20:09.934Z,19.69
2023-04-18T12:22:40.006Z,19.70
2023-04-18T12:25:20.248Z,19.72
2023-04-18T12:27:57.906Z,19.73
2023-04-18T12:30:30.400Z,19.73
2023-04-18T12:33:02.857Z,19.74
2023-04-18T12:35:32.324Z,19.74
2023-04-18T12:38:02.184Z,19.76
2023-04-18T12:40:31.170Z,19.75
2023-04-18T12:43:00.537Z,19.76
2023-04-18T12:45:31.747Z,19.77
2023-04-18T12:48:00.005Z,19.76
2023-04-18T12:50:28.749Z,19.76
2023-04-18T12:53:01.505Z,19.79
2023-04-18T12:55:30.154Z,19.77
2023-04-18T12:57:58.591Z,19.78
2023-04-18T13:00:28.368Z,19.84
2023-04-18T13:02:58.031Z,19.87
2023-04-18T13:05:31.594Z,19.92
2023-04-18T13:10:36.177Z,20.04
2023-04-18T13:13:04.454Z,20.07
2023-04-18T13:15:33.079Z,20.16
2023-04-18T13:18:06.208Z,20.20
2023-04-18T13:20:35.165Z,20.25
2023-04-18T13:23:03.486Z,20.30
2023-04-18T13:25:31.912Z,20.34
2023-04-18T13:28:00.959Z,20.36
2023-04-18T13:30:29.756Z,20.42
2023-04-18T13:32:58.717Z,20.46
2023-04-18T13:35:28.199Z,20.53
2023-04-18T13:37:58.067Z,20.58
2023-04-18T13:40:26.553Z,20.62
2023-04-18T13:42:54.772Z,20.68
2023-04-18T13:45:25.471Z,20.73
2023-04-18T13:47:53.982Z,20.79
2023-04-18T13:50:23.179Z,20.85
2023-04-18T13:52:54.541Z,20.91
2023-04-18T13:55:22.791Z,20.95
2023-04-18T13:57:51.034Z,21.01
2023-04-18T14:00:20.415Z,21.06
2023-04-18T14:02:48.838Z,21.09
2023-04-18T14:05:17.161Z,21.17
2023-04-18T14:07:45.416Z,21.21
2023-04-18T14:10:14.911Z,21.27
2023-04-18T14:12:43.051Z,21.31
2023-04-18T14:15:12.172Z,21.36
2023-04-18T14:17:40.337Z,21.41
2023-04-18T14:20:09.541Z,21.46
2023-04-18T14:22:37.734Z,21.52
2023-04-18T14:25:06.820Z,21.55
2023-04-18T14:27:36.287Z,21.59
2023-04-18T14:30:06.494Z,21.61
2023-04-18T14:32:35.391Z,21.64
2023-04-18T14:35:07.125Z,21.69
2023-04-18T14:37:35.488Z,21.70
2023-04-18T14:40:05.467Z,21.71
2023-04-18T14:42:36.687Z,21.69
2023-04-18T14:45:08.385Z,21.70
2023-04-18T14:47:39.078Z,21.75
2023-04-18T14:50:08.776Z,21.76
2023-04-18T14:52:37.138Z,21.78
2023-04-18T14:55:05.715Z,21.82
2023-04-18T14:57:35.925Z,21.84
2023-04-18T15:00:04.886Z,21.87
2023-04-18T15:02:34.812Z,21.90
2023-04-18T15:05:03.697Z,21.91
2023-04-18T15:07:31.949Z,21.96
2023-04-18T15:10:00.142Z,21.98
2023-04-18T15:12:28.216Z,22.02
2023-04-18T15:14:56.412Z,22.00
2023-04-18T15:17:24.477Z,22.03
2023-04-18T15:19:53.918Z,22.04
2023-04-18T15:22:22.215Z,22.04
2023-04-18T15:24:50.358Z,22.11
2023-04-18T15:27:18.550Z,22.10
2023-04-18T15:29:49.412Z,22.15
2023-04-18T15:32:18.033Z,22.17
2023-04-18T15:34:46.144Z,22.19
2023-04-18T15:37:15.661Z,22.20
2023-04-18T15:39:43.767Z,22.23
2023-04-18T15:42:11.772Z,22.25
2023-04-18T15:44:39.878Z,22.26
2023-04-18T15:47:07.960Z,22.31
2023-04-18T15:49:36.009Z,22.32
2023-04-18T15:52:06.308Z,22.34
2023-04-18T15:54:35.789Z,22.35
2023-04-18T15:57:04.260Z,22.38
2023-04-18T15:59:32.406Z,22.36
2023-04-18T16:02:00.891Z,22.38
2023-04-18T16:04:29.163Z,22.38
2023-04-18T16:06:57.408Z,22.37
2023-04-18T16:09:25.716Z,22.36
2023-04-18T16:11:56.181Z,22.35
2023-04-18T16:14:24.284Z,22.32
2023-04-18T16:16:53.720Z,22.30
2023-04-18T16:19:21.829Z,22.28
2023-04-18T16:21:50.166Z,22.25
2023-04-18T16:24:18.232Z,22.25
2023-04-18T16:26:46.387Z,22.23
2023-04-18T16:29:16.125Z,22.21
2023-04-18T16:31:44.554Z,22.18
2023-04-18T16:34:12.935Z,22.17
2023-04-18T16:36:41.155Z,22.15
2023-04-18T16:39:09.366Z,22.13
2023-04-18T16:41:37.531Z,22.12
2023-04-18T16:44:06.289Z,22.10
2023-04-18T16:46:35.779Z,22.07
2023-04-18T16:49:04.019Z,22.05
2023-04-18T16:51:32.294Z,22.03
2023-04-18T16:54:00.456Z,22.01
2023-04-18T16:56:28.577Z,21.99
2023-04-18T16:58:56.824Z,21.98
2023-04-18T17:01:25.046Z,21.94
2023-04-18T17:03:55.291Z,21.93
2023-04-18T17:06:25.094Z,21.89
2023-04-18T17:08:53.726Z,21.88
2023-04-18T17:11:22.276Z,21.85
2023-04-18T17:13:51.239Z,21.83
2023-04-18T17:16:19.456Z,21.81
2023-04-18T17:18:47.548Z,21.78
2023-04-18T17:21:17.001Z,21.77
2023-04-18T17:23:45.080Z,21.73
2023-04-18T17:26:13.185Z,21.70
2023-04-18T17:28:41.513Z,21.67
2023-04-18T17:31:09.641Z,21.65
2023-04-18T17:33:37.768Z,21.63
2023-04-18T17:36:06.851Z,21.62
2023-04-18T17:38:36.414Z,21.59
2023-04-18T17:41:05.725Z,21.58
2023-04-18T17:43:33.822Z,21.55
2023-04-18T17:46:03.637Z,21.53
2023-04-18T17:48:32.009Z,21.51
2023-04-18T17:51:00.236Z,21.47
2023-04-18T17:53:29.684Z,21.45
2023-04-18T17:56:01.097Z,21.43
2023-04-18T17:58:29.676Z,21.40
2023-04-18T18:00:57.962Z,21.38
2023-04-18T18:03:26.310Z,21.35
2023-04-18T18:05:55.283Z,21.34
2023-04-18T18:08:24.300Z,21.32
2023-04-18T18:10:52.405Z,21.30
2023-04-18T18:13:22.090Z,21.27
2023-04-18T18:15:50.470Z,21.25
2023-04-18T18:18:18.587Z,21.23
2023-04-18T18:20:46.773Z,21.17
2023-04-18T18:23:15.320Z,21.18
2023-04-18T18:25:43.385Z,21.15
2023-04-18T18:28:11.609Z,21.13
2023-04-18T18:30:41.120Z,21.09
2023-04-18T18:33:09.337Z,21.08
2023-04-18T18:35:37.806Z,21.05
2023-04-18T18:38:06.429Z,21.05
2023-04-18T18:40:34.669Z,21.02
2023-04-18T18:43:03.239Z,21.00
2023-04-18T18:45:31.344Z,20.99
2023-04-18T18:48:00.882Z,20.97
2023-04-18T18:50:29.044Z,20.95
2023-04-18T18:52:57.314Z,20.92
2023-04-18T18:55:25.544Z,20.90
2023-04-18T18:57:54.778Z,20.89
2023-04-18T19:00:23.014Z,20.88
2023-04-18T19:02:51.509Z,20.86
2023-04-18T19:05:21.195Z,20.83
2023-04-18T19:07:51.359Z,20.82
2023-04-18T19:10:19.824Z,20.80
2023-04-18T19:12:48.150Z,20.79
2023-04-18T19:15:16.590Z,20.77
2023-04-18T19:17:44.769Z,20.74
2023-04-18T19:20:13.019Z,20.72
2023-04-18T19:22:42.605Z,20.71
2023-04-18T19:25:11.299Z,20.70
2023-04-18T19:27:39.428Z,20.68
2023-04-18T19:30:10.667Z,20.67
2023-04-18T19:32:39.008Z,20.65
2023-04-18T19:35:09.867Z,20.64
2023-04-18T19:37:38.100Z,20.62
2023-04-18T19:40:09.363Z,20.61
2023-04-18T19:42:37.612Z,20.56
2023-04-18T19:45:06.996Z,20.50
2023-04-18T19:47:35.203Z,20.56
2023-04-18T19:50:03.384Z,20.53
2023-04-18T19:52:31.584Z,20.52
2023-04-18T19:54:59.975Z,20.51
2023-04-18T19:57:29.726Z,20.49
2023-04-18T20:00:01.433Z,20.47
2023-04-18T20:02:30.011Z,20.47
2023-04-18T20:04:58.556Z,20.44
2023-04-18T20:07:26.892Z,20.43
2023-04-18T20:09:56.392Z,20.41
2023-04-18T20:12:24.843Z,20.41
2023-04-18T20:14:58.497Z,20.39
2023-04-18T20:17:27.611Z,20.37
2023-04-18T20:19:57.128Z,20.36
2023-04-18T20:22:26.779Z,20.35
2023-04-18T20:24:57.257Z,20.34
2023-04-18T20:27:25.905Z,20.30
2023-04-18T20:29:57.472Z,20.30
2023-04-18T20:32:26.750Z,20.29
2023-04-18T20:34:54.994Z,20.28
2023-04-18T20:37:23.154Z,20.27
2023-04-18T20:39:52.865Z,20.25
2023-04-18T20:42:21.110Z,20.24
2023-04-18T20:44:49.159Z,20.22
2023-04-18T20:47:18.743Z,20.20
2023-04-18T20:49:46.990Z,20.20
2023-04-18T20:52:15.583Z,20.18
2023-04-18T20:54:43.624Z,20.18
2023-04-18T20:57:11.681Z,20.16
2023-04-18T20:59:39.903Z,20.14
2023-04-18T21:02:10.699Z,20.13
2023-04-18T21:04:40.694Z,20.12
2023-04-18T21:07:08.881Z,20.11
2023-04-18T21:09:37.451Z,20.10
2023-04-18T21:12:07.701Z,20.08
2023-04-18T21:14:42.256Z,20.05
2023-04-18T21:17:10.853Z,20.05
2023-04-18T21:19:40.358Z,20.04
2023-04-18T21:22:08.492Z,20.02
2023-04-18T21:24:36.588Z,20.01
2023-04-18T21:27:05.080Z,20.00
2023-04-18T21:29:33.298Z,19.99
2023-04-18T21:32:01.656Z,19.97
2023-04-18T21:34:31.769Z,19.96
2023-04-18T21:37:01.452Z,19.93
2023-04-18T21:39:29.701Z,19.92
2023-04-18T21:41:58.087Z,19.91
2023-04-18T21:44:26.216Z,19.89
2023-04-18T21:46:54.268Z,19.89
2023-04-18T21:49:25.731Z,19.88
2023-04-18T21:51:54.998Z,19.88
2023-04-18T21:54:24.633Z,19.84
2023-04-18T21:56:52.685Z,19.81
2023-04-18T21:59:21.034Z,19.82
2023-04-18T22:01:49.091Z,19.81
2023-04-18T22:04:21.153Z,19.82
2023-04-18T22:06:49.384Z,19.82
2023-04-18T22:09:19.290Z,19.80
2023-04-18T22:11:48.967Z,19.79
2023-04-18T22:14:17.720Z,19.78
2023-04-18T22:16:46.041Z,19.78
2023-04-18T22:19:14.898Z,19.77
2023-04-18T22:21:43.085Z,19.76
2023-04-18T22:24:11.261Z,19.75
2023-04-18T22:26:39.467Z,19.74
2023-04-18T22:29:09.072Z,19.72
2023-04-18T22:31:37.195Z,19.72
2023-04-18T22:34:05.729Z,19.69
2023-04-18T22:36:33.768Z,19.71
2023-04-18T22:39:01.869Z,19.69
2023-04-18T22:41:29.912Z,19.69
2023-04-18T22:43:58.005Z,19.68
2023-04-18T22:46:28.049Z,19.67
2023-04-18T22:48:56.953Z,19.67
2023-04-18T22:51:25.273Z,19.66
2023-04-18T22:53:53.557Z,19.65
2023-04-18T22:56:21.570Z,19.64
2023-04-18T22:58:49.634Z,19.64
2023-04-18T23:01:17.769Z,19.62
2023-04-18T23:03:47.595Z,19.61
2023-04-18T23:06:16.079Z,19.59
2023-04-18T23:08:44.269Z,19.60
2023-04-18T23:11:12.412Z,19.59
2023-04-18T23:13:40.506Z,19.59
2023-04-18T23:16:09.717Z,19.56
2023-04-18T23:18:38.434Z,19.56
2023-04-18T23:21:08.420Z,19.56
2023-04-18T23:23:36.541Z,19.55
2023-04-18T23:26:14.057Z,19.54
2023-04-18T23:28:42.689Z,19.53
2023-04-18T23:31:11.680Z,19.52
2023-04-18T23:33:42.756Z,19.51
2023-04-18T23:36:12.943Z,19.50
2023-04-18T23:38:41.215Z,19.50
2023-04-18T23:41:09.452Z,19.49
2023-04-18T23:43:37.516Z,19.48
2023-04-18T23:46:06.027Z,19.45
2023-04-18T23:48:34.162Z,19.45
2023-04-18T23:51:02.651Z,19.44
2023-04-18T23:53:32.612Z,19.43
2023-04-18T23:56:00.833Z,19.42
2023-04-18T23:58:29.095Z,19.42
